Aérodrome :
LOGIN :

S'inscrire | Disclaimer

   EN    FR    IT 

 










Légende :    VFR   VFR Marginal   IFR   IFR Intensif   IFR Très Intensif
Visi : 
Plafond : 
>= 8 km
>= 3000ft
5 à 8 km
1000 à 3000 ft
1500m à 5 km
500 à 1000 ft
800 à 1500m
200 à 500 ft
< 800m
< 200 ft
Symboles :   Orages  Brouillard  Fortes neiges  Fortes précipitations  Vent > 20 kt
SIGMETs :   Divers  Orages  Givrage  Turbulence  Onde Orograph.  Cendres Volcan.






- Altitude de l'aérodrome : 1416 ft
- Code IATA : ZRH


LSZH - Zurich

DERNIER METAR :
  • 232350Z 20005KT 5000 BR OVC008 M02/M04 Q1027 NOSIG

METARs EXPIRÉS :
  • 232320Z 22006KT 5000 BR OVC008 M02/M04 Q1028 NOSIG
  • 232250Z 21003KT 5000 BR OVC008 M02/M04 Q1027 NOSIG
  • 232220Z VRB02KT 5000 BR OVC008 M02/M04 Q1027 NOSIG
  • 232150Z VRB03KT 6000 OVC008 M02/M04 Q1027 BECMG 4000 BR
  • 232120Z VRB02KT 6000 OVC008 M02/M05 Q1027 BECMG 4000 BR

TAF TAF LSZH
Valide du 24 à 00h jusqu'au 25 à 06h UTC


232325Z 2400/2506 VRB03KT 5000 OVC008 TX02/2415Z TNM03/2405Z TNM02/2505Z
BECMG 2400/2402 3500 BR OVC004
PROB40 2402/2409 1500 BCFG
PROB30 2403/2408 0800 FZFG VV003
BECMG 2411/2413 6000 NSW BKN008
BECMG 2418/2421 3000 BR
BECMG 2421/2424 1500 BCFG
PROB40 2501/2506 0800 FZFG VV002
ATIS : +41 43 816 2295 (DEP) +41 43 816 2294 (ARR)



MET'MAP, la Météo Aéronautique d'un coup d'oeil ! - Copyright ORBIFLY Décembre 2007 - Disclaimer

ORBIFLY MET'MAP TEAM :

Programmation & Développement : Alexandra Zaïnal
Sur une idée originale de : Baudouin d'Aumeries
Assistance à la programmation : Marc-Olivier Méhu
Soutien technique & logistique : Manuel Goepfert

Contact : metmap@orbifly.com




SOURCES & CREDITS :

   NOAA